Terminal Aerodrome Forecast
Issued by NWS Paducah, KY

Home | Current Version | Previous Version | Text Only | Print | Product List | Glossary On
Versions: 1 2 3 4 5 6 7 8 9 10 11 12 13 14 15 16 17 18
000
FTUS43 KPAH 101132
TAFEVV
TAF
KEVV 101132Z 1012/1112 00000KT P6SM BKN080
     FM101600 17004KT P6SM SCT080 BKN150
     FM110400 15005KT P6SM BKN060=

USA.gov is the U.S. government's official web portal to all federal, state and local government web resources and services.